sensor_id;sensor_type;location;lat;lon;timestamp;P1;durP1;ratioP1;P2;durP2;ratioP2
69083;SDS011;56185;48.526;9.044;2023-02-13T00:00:10;12.75;;;6.93;;
69083;SDS011;56185;48.526;9.044;2023-02-13T00:02:39;10.88;;;6.70;;
69083;SDS011;56185;48.526;9.044;2023-02-13T00:05:04;11.73;;;6.82;;
69083;SDS011;56185;48.526;9.044;2023-02-13T00:07:29;11.82;;;7.35;;
69083;SDS011;56185;48.526;9.044;2023-02-13T00:09:55;14.32;;;9.77;;
69083;SDS011;56185;48.526;9.044;2023-02-13T00:12:20;16.40;;;11.02;;
69083;SDS011;56185;48.526;9.044;2023-02-13T00:14:45;15.27;;;9.38;;
69083;SDS011;56185;48.526;9.044;2023-02-13T00:17:10;11.65;;;7.88;;
69083;SDS011;56185;48.526;9.044;2023-02-13T00:19:35;11.55;;;7.00;;
69083;SDS011;56185;48.526;9.044;2023-02-13T00:22:01;11.30;;;7.20;;
69083;SDS011;56185;48.526;9.044;2023-02-13T00:24:26;12.70;;;8.10;;
69083;SDS011;56185;48.526;9.044;2023-02-13T00:26:51;13.43;;;8.73;;
69083;SDS011;56185;48.526;9.044;2023-02-13T00:29:17;14.57;;;8.48;;
69083;SDS011;56185;48.526;9.044;2023-02-13T00:31:42;16.05;;;8.88;;
69083;SDS011;56185;48.526;9.044;2023-02-13T00:34:07;15.20;;;9.02;;
69083;SDS011;56185;48.526;9.044;2023-02-13T00:36:33;16.88;;;9.60;;
69083;SDS011;56185;48.526;9.044;2023-02-13T00:38:58;14.88;;;8.57;;
69083;SDS011;56185;48.526;9.044;2023-02-13T00:41:23;14.77;;;9.00;;
69083;SDS011;56185;48.526;9.044;2023-02-13T00:43:49;15.60;;;9.45;;
69083;SDS011;56185;48.526;9.044;2023-02-13T00:46:14;17.33;;;10.27;;
69083;SDS011;56185;48.526;9.044;2023-02-13T00:48:41;18.25;;;9.90;;
69083;SDS011;56185;48.526;9.044;2023-02-13T00:51:06;23.10;;;10.98;;
69083;SDS011;56185;48.526;9.044;2023-02-13T00:53:32;22.73;;;11.32;;
69083;SDS011;56185;48.526;9.044;2023-02-13T00:55:58;26.02;;;11.20;;
69083;SDS011;56185;48.526;9.044;2023-02-13T00:58:23;28.15;;;13.13;;
69083;SDS011;56185;48.526;9.044;2023-02-13T01:00:49;27.48;;;12.40;;
69083;SDS011;56185;48.526;9.044;2023-02-13T01:03:16;26.17;;;12.45;;
69083;SDS011;56185;48.526;9.044;2023-02-13T01:05:42;23.65;;;12.02;;
69083;SDS011;56185;48.526;9.044;2023-02-13T01:08:08;27.85;;;12.55;;
69083;SDS011;56185;48.526;9.044;2023-02-13T01:10:35;23.98;;;12.63;;
69083;SDS011;56185;48.526;9.044;2023-02-13T01:13:01;24.95;;;11.43;;
69083;SDS011;56185;48.526;9.044;2023-02-13T01:15:26;27.67;;;13.55;;
69083;SDS011;56185;48.526;9.044;2023-02-13T01:17:52;25.40;;;13.07;;
69083;SDS011;56185;48.526;9.044;2023-02-13T01:20:18;22.40;;;11.55;;
69083;SDS011;56185;48.526;9.044;2023-02-13T01:22:43;29.08;;;12.70;;
69083;SDS011;56185;48.526;9.044;2023-02-13T01:25:09;31.67;;;12.55;;
69083;SDS011;56185;48.526;9.044;2023-02-13T01:27:34;26.52;;;12.65;;
69083;SDS011;56185;48.526;9.044;2023-02-13T01:29:59;34.00;;;14.30;;
69083;SDS011;56185;48.526;9.044;2023-02-13T01:32:25;25.48;;;12.73;;
69083;SDS011;56185;48.526;9.044;2023-02-13T01:34:50;34.58;;;14.65;;
69083;SDS011;56185;48.526;9.044;2023-02-13T01:37:16;26.67;;;13.40;;
69083;SDS011;56185;48.526;9.044;2023-02-13T01:39:41;27.52;;;13.90;;
69083;SDS011;56185;48.526;9.044;2023-02-13T01:42:14;26.23;;;12.48;;
69083;SDS011;56185;48.526;9.044;2023-02-13T01:45:41;24.33;;;12.48;;
69083;SDS011;56185;48.526;9.044;2023-02-13T01:47:51;22.98;;;12.50;;
69083;SDS011;56185;48.526;9.044;2023-02-13T01:50:32;33.65;;;13.50;;
69083;SDS011;56185;48.526;9.044;2023-02-13T01:53:08;25.45;;;12.23;;
69083;SDS011;56185;48.526;9.044;2023-02-13T01:55:37;25.48;;;12.43;;
69083;SDS011;56185;48.526;9.044;2023-02-13T01:58:10;30.38;;;11.70;;
69083;SDS011;56185;48.526;9.044;2023-02-13T02:00:38;31.60;;;11.85;;
69083;SDS011;56185;48.526;9.044;2023-02-13T02:03:07;29.88;;;11.93;;
69083;SDS011;56185;48.526;9.044;2023-02-13T02:05:37;24.65;;;11.57;;
69083;SDS011;56185;48.526;9.044;2023-02-13T02:08:04;32.25;;;11.52;;
69083;SDS011;56185;48.526;9.044;2023-02-13T02:10:32;24.77;;;10.57;;
69083;SDS011;56185;48.526;9.044;2023-02-13T02:13:00;26.65;;;10.95;;
69083;SDS011;56185;48.526;9.044;2023-02-13T02:15:31;26.52;;;11.63;;
69083;SDS011;56185;48.526;9.044;2023-02-13T02:17:56;21.33;;;10.93;;
69083;SDS011;56185;48.526;9.044;2023-02-13T02:42:59;17.83;;;9.80;;
69083;SDS011;56185;48.526;9.044;2023-02-13T02:48:22;25.13;;;11.07;;
69083;SDS011;56185;48.526;9.044;2023-02-13T02:51:05;20.92;;;11.10;;
69083;SDS011;56185;48.526;9.044;2023-02-13T03:01:14;18.73;;;10.43;;
69083;SDS011;56185;48.526;9.044;2023-02-13T03:03:42;18.67;;;10.77;;
69083;SDS011;56185;48.526;9.044;2023-02-13T03:06:10;25.35;;;10.50;;
69083;SDS011;56185;48.526;9.044;2023-02-13T03:08:41;18.83;;;10.48;;
69083;SDS011;56185;48.526;9.044;2023-02-13T03:11:10;25.35;;;10.98;;
69083;SDS011;56185;48.526;9.044;2023-02-13T03:13:38;19.25;;;11.05;;
69083;SDS011;56185;48.526;9.044;2023-02-13T03:16:10;23.88;;;10.57;;
69083;SDS011;56185;48.526;9.044;2023-02-13T03:18:40;19.85;;;10.80;;
69083;SDS011;56185;48.526;9.044;2023-02-13T03:21:55;22.25;;;10.50;;
69083;SDS011;56185;48.526;9.044;2023-02-13T03:24:10;32.22;;;10.43;;
69083;SDS011;56185;48.526;9.044;2023-02-13T03:26:58;23.45;;;10.60;;
69083;SDS011;56185;48.526;9.044;2023-02-13T03:29:42;19.83;;;10.52;;
69083;SDS011;56185;48.526;9.044;2023-02-13T03:32:16;17.42;;;10.38;;
69083;SDS011;56185;48.526;9.044;2023-02-13T03:35:36;18.90;;;9.27;;
69083;SDS011;56185;48.526;9.044;2023-02-13T03:37:35;20.38;;;10.43;;
69083;SDS011;56185;48.526;9.044;2023-02-13T03:40:06;19.92;;;9.73;;
69083;SDS011;56185;48.526;9.044;2023-02-13T03:45:08;24.52;;;9.57;;
69083;SDS011;56185;48.526;9.044;2023-02-13T03:47:38;23.90;;;11.00;;
69083;SDS011;56185;48.526;9.044;2023-02-13T03:50:05;24.75;;;10.65;;
69083;SDS011;56185;48.526;9.044;2023-02-13T03:55:17;18.10;;;10.95;;
69083;SDS011;56185;48.526;9.044;2023-02-13T03:57:45;31.55;;;10.57;;
69083;SDS011;56185;48.526;9.044;2023-02-13T04:00:13;27.00;;;11.00;;
69083;SDS011;56185;48.526;9.044;2023-02-13T04:02:41;29.85;;;11.43;;
69083;SDS011;56185;48.526;9.044;2023-02-13T04:05:23;19.98;;;11.00;;
69083;SDS011;56185;48.526;9.044;2023-02-13T04:07:50;26.38;;;10.95;;
69083;SDS011;56185;48.526;9.044;2023-02-13T04:10:16;25.67;;;11.45;;
69083;SDS011;56185;48.526;9.044;2023-02-13T04:15:51;26.98;;;11.35;;
69083;SDS011;56185;48.526;9.044;2023-02-13T04:18:24;29.85;;;10.40;;
69083;SDS011;56185;48.526;9.044;2023-02-13T04:20:52;20.88;;;11.15;;
69083;SDS011;56185;48.526;9.044;2023-02-13T04:23:18;21.77;;;9.90;;
69083;SDS011;56185;48.526;9.044;2023-02-13T04:25:44;19.17;;;10.77;;
69083;SDS011;56185;48.526;9.044;2023-02-13T04:28:13;23.92;;;10.90;;
69083;SDS011;56185;48.526;9.044;2023-02-13T04:30:38;24.17;;;11.52;;
69083;SDS011;56185;48.526;9.044;2023-02-13T04:33:03;18.02;;;11.18;;
69083;SDS011;56185;48.526;9.044;2023-02-13T04:35:29;20.45;;;10.90;;
69083;SDS011;56185;48.526;9.044;2023-02-13T04:37:54;20.35;;;10.88;;
69083;SDS011;56185;48.526;9.044;2023-02-13T04:40:20;17.90;;;11.50;;
69083;SDS011;56185;48.526;9.044;2023-02-13T04:42:48;23.77;;;10.93;;
69083;SDS011;56185;48.526;9.044;2023-02-13T04:45:14;19.98;;;10.80;;
69083;SDS011;56185;48.526;9.044;2023-02-13T04:47:39;17.92;;;10.25;;
69083;SDS011;56185;48.526;9.044;2023-02-13T04:50:05;20.45;;;10.57;;
69083;SDS011;56185;48.526;9.044;2023-02-13T04:52:31;18.70;;;10.23;;
69083;SDS011;56185;48.526;9.044;2023-02-13T04:54:57;18.15;;;10.93;;
69083;SDS011;56185;48.526;9.044;2023-02-13T04:57:22;22.55;;;10.25;;
69083;SDS011;56185;48.526;9.044;2023-02-13T04:59:47;21.35;;;11.52;;
69083;SDS011;56185;48.526;9.044;2023-02-13T05:02:12;20.13;;;11.02;;
69083;SDS011;56185;48.526;9.044;2023-02-13T05:04:38;20.90;;;11.20;;
69083;SDS011;56185;48.526;9.044;2023-02-13T05:07:03;15.18;;;9.50;;
69083;SDS011;56185;48.526;9.044;2023-02-13T05:09:28;21.23;;;11.20;;
69083;SDS011;56185;48.526;9.044;2023-02-13T05:11:53;17.25;;;10.60;;
69083;SDS011;56185;48.526;9.044;2023-02-13T05:14:19;17.70;;;10.30;;
69083;SDS011;56185;48.526;9.044;2023-02-13T05:16:44;17.25;;;10.35;;
69083;SDS011;56185;48.526;9.044;2023-02-13T05:19:10;17.17;;;10.18;;
69083;SDS011;56185;48.526;9.044;2023-02-13T05:21:35;14.55;;;9.63;;
69083;SDS011;56185;48.526;9.044;2023-02-13T05:24:00;15.88;;;9.68;;
69083;SDS011;56185;48.526;9.044;2023-02-13T05:26:26;16.95;;;10.15;;
69083;SDS011;56185;48.526;9.044;2023-02-13T05:28:51;16.13;;;9.88;;
69083;SDS011;56185;48.526;9.044;2023-02-13T05:31:16;16.65;;;9.73;;
69083;SDS011;56185;48.526;9.044;2023-02-13T05:33:41;17.10;;;10.18;;
69083;SDS011;56185;48.526;9.044;2023-02-13T05:36:07;15.15;;;9.25;;
69083;SDS011;56185;48.526;9.044;2023-02-13T05:38:32;17.05;;;9.98;;
69083;SDS011;56185;48.526;9.044;2023-02-13T05:41:01;14.90;;;9.65;;
69083;SDS011;56185;48.526;9.044;2023-02-13T05:43:26;16.27;;;10.90;;
69083;SDS011;56185;48.526;9.044;2023-02-13T05:46:05;19.98;;;10.55;;
69083;SDS011;56185;48.526;9.044;2023-02-13T05:48:32;18.80;;;11.13;;
69083;SDS011;56185;48.526;9.044;2023-02-13T05:50:57;18.55;;;11.00;;
69083;SDS011;56185;48.526;9.044;2023-02-13T05:53:23;18.98;;;11.07;;
69083;SDS011;56185;48.526;9.044;2023-02-13T05:55:48;23.25;;;12.02;;
69083;SDS011;56185;48.526;9.044;2023-02-13T05:58:13;17.85;;;10.88;;
69083;SDS011;56185;48.526;9.044;2023-02-13T06:00:39;21.42;;;12.02;;
69083;SDS011;56185;48.526;9.044;2023-02-13T06:03:04;21.10;;;12.75;;
69083;SDS011;56185;48.526;9.044;2023-02-13T06:05:29;21.48;;;12.00;;
69083;SDS011;56185;48.526;9.044;2023-02-13T06:07:54;20.52;;;10.93;;
69083;SDS011;56185;48.526;9.044;2023-02-13T06:10:20;21.70;;;12.43;;
69083;SDS011;56185;48.526;9.044;2023-02-13T06:12:45;18.15;;;10.50;;
69083;SDS011;56185;48.526;9.044;2023-02-13T06:15:10;19.75;;;11.50;;
69083;SDS011;56185;48.526;9.044;2023-02-13T06:17:36;18.75;;;10.55;;
69083;SDS011;56185;48.526;9.044;2023-02-13T06:20:01;20.67;;;11.07;;
69083;SDS011;56185;48.526;9.044;2023-02-13T06:22:26;19.15;;;10.90;;
69083;SDS011;56185;48.526;9.044;2023-02-13T06:24:51;19.00;;;10.82;;
69083;SDS011;56185;48.526;9.044;2023-02-13T06:27:16;19.33;;;10.75;;
69083;SDS011;56185;48.526;9.044;2023-02-13T06:29:42;18.03;;;11.17;;
69083;SDS011;56185;48.526;9.044;2023-02-13T06:32:07;20.92;;;11.52;;
69083;SDS011;56185;48.526;9.044;2023-02-13T06:34:32;19.02;;;12.25;;
69083;SDS011;56185;48.526;9.044;2023-02-13T06:36:57;24.08;;;15.40;;
69083;SDS011;56185;48.526;9.044;2023-02-13T06:39:23;34.22;;;18.75;;
69083;SDS011;56185;48.526;9.044;2023-02-13T06:41:48;29.17;;;16.90;;
69083;SDS011;56185;48.526;9.044;2023-02-13T06:44:13;23.88;;;14.57;;
69083;SDS011;56185;48.526;9.044;2023-02-13T06:46:38;21.08;;;12.98;;
69083;SDS011;56185;48.526;9.044;2023-02-13T06:49:04;24.02;;;12.75;;
69083;SDS011;56185;48.526;9.044;2023-02-13T06:51:29;27.73;;;15.55;;
69083;SDS011;56185;48.526;9.044;2023-02-13T06:53:54;31.95;;;17.25;;
69083;SDS011;56185;48.526;9.044;2023-02-13T06:56:19;28.60;;;14.90;;
69083;SDS011;56185;48.526;9.044;2023-02-13T06:58:45;33.45;;;17.60;;
69083;SDS011;56185;48.526;9.044;2023-02-13T07:01:10;32.55;;;16.90;;
69083;SDS011;56185;48.526;9.044;2023-02-13T07:03:35;38.38;;;19.17;;
69083;SDS011;56185;48.526;9.044;2023-02-13T07:06:01;28.38;;;15.43;;
69083;SDS011;56185;48.526;9.044;2023-02-13T07:08:26;27.63;;;14.35;;
69083;SDS011;56185;48.526;9.044;2023-02-13T07:10:51;31.90;;;16.52;;
69083;SDS011;56185;48.526;9.044;2023-02-13T07:13:16;30.42;;;16.38;;
69083;SDS011;56185;48.526;9.044;2023-02-13T07:15:42;27.75;;;15.35;;
69083;SDS011;56185;48.526;9.044;2023-02-13T07:18:07;27.02;;;14.20;;
69083;SDS011;56185;48.526;9.044;2023-02-13T07:20:33;19.63;;;11.77;;
69083;SDS011;56185;48.526;9.044;2023-02-13T07:23:02;17.67;;;10.95;;
69083;SDS011;56185;48.526;9.044;2023-02-13T07:25:29;18.20;;;11.60;;
69083;SDS011;56185;48.526;9.044;2023-02-13T07:28:05;18.33;;;11.10;;
69083;SDS011;56185;48.526;9.044;2023-02-13T07:30:31;16.77;;;10.18;;
69083;SDS011;56185;48.526;9.044;2023-02-13T07:33:00;16.73;;;10.75;;
69083;SDS011;56185;48.526;9.044;2023-02-13T07:35:26;16.48;;;10.63;;
69083;SDS011;56185;48.526;9.044;2023-02-13T07:37:52;18.95;;;10.43;;
69083;SDS011;56185;48.526;9.044;2023-02-13T07:40:18;17.38;;;10.40;;
69083;SDS011;56185;48.526;9.044;2023-02-13T07:42:43;19.52;;;11.13;;
69083;SDS011;56185;48.526;9.044;2023-02-13T07:45:08;17.77;;;10.65;;
69083;SDS011;56185;48.526;9.044;2023-02-13T07:47:34;18.10;;;10.77;;
69083;SDS011;56185;48.526;9.044;2023-02-13T07:50:00;19.77;;;11.73;;
69083;SDS011;56185;48.526;9.044;2023-02-13T07:52:25;17.83;;;10.57;;
69083;SDS011;56185;48.526;9.044;2023-02-13T07:54:51;15.97;;;10.17;;
69083;SDS011;56185;48.526;9.044;2023-02-13T07:57:16;19.27;;;10.93;;
69083;SDS011;56185;48.526;9.044;2023-02-13T07:59:41;19.65;;;11.50;;
69083;SDS011;56185;48.526;9.044;2023-02-13T08:02:09;16.30;;;10.38;;
69083;SDS011;56185;48.526;9.044;2023-02-13T08:04:36;18.35;;;11.18;;
69083;SDS011;56185;48.526;9.044;2023-02-13T08:07:01;17.15;;;10.52;;
69083;SDS011;56185;48.526;9.044;2023-02-13T08:09:26;17.77;;;10.38;;
69083;SDS011;56185;48.526;9.044;2023-02-13T08:11:52;18.20;;;10.48;;
69083;SDS011;56185;48.526;9.044;2023-02-13T08:14:18;17.95;;;11.10;;
69083;SDS011;56185;48.526;9.044;2023-02-13T08:16:47;17.10;;;10.43;;
69083;SDS011;56185;48.526;9.044;2023-02-13T08:19:12;16.58;;;10.50;;
69083;SDS011;56185;48.526;9.044;2023-02-13T08:21:38;17.73;;;11.23;;
69083;SDS011;56185;48.526;9.044;2023-02-13T08:24:03;16.85;;;10.38;;
69083;SDS011;56185;48.526;9.044;2023-02-13T08:26:32;19.27;;;9.88;;
69083;SDS011;56185;48.526;9.044;2023-02-13T08:28:57;14.88;;;9.95;;
69083;SDS011;56185;48.526;9.044;2023-02-13T08:31:23;14.85;;;9.57;;
69083;SDS011;56185;48.526;9.044;2023-02-13T08:33:48;15.10;;;9.93;;
69083;SDS011;56185;48.526;9.044;2023-02-13T08:36:14;16.85;;;10.00;;
69083;SDS011;56185;48.526;9.044;2023-02-13T08:38:39;14.88;;;9.20;;
69083;SDS011;56185;48.526;9.044;2023-02-13T08:41:04;15.73;;;9.68;;
69083;SDS011;56185;48.526;9.044;2023-02-13T08:43:30;15.23;;;8.65;;
69083;SDS011;56185;48.526;9.044;2023-02-13T08:45:58;15.55;;;9.55;;
69083;SDS011;56185;48.526;9.044;2023-02-13T08:48:24;16.33;;;9.52;;
69083;SDS011;56185;48.526;9.044;2023-02-13T08:50:50;14.90;;;9.07;;
69083;SDS011;56185;48.526;9.044;2023-02-13T08:53:16;14.32;;;8.95;;
69083;SDS011;56185;48.526;9.044;2023-02-13T08:55:41;16.27;;;9.55;;
69083;SDS011;56185;48.526;9.044;2023-02-13T08:58:06;14.68;;;9.35;;
69083;SDS011;56185;48.526;9.044;2023-02-13T09:00:31;15.48;;;9.50;;
69083;SDS011;56185;48.526;9.044;2023-02-13T09:03:00;15.13;;;8.95;;
69083;SDS011;56185;48.526;9.044;2023-02-13T09:05:26;17.15;;;9.60;;
69083;SDS011;56185;48.526;9.044;2023-02-13T09:07:52;18.38;;;10.15;;
69083;SDS011;56185;48.526;9.044;2023-02-13T09:10:18;14.88;;;9.43;;
69083;SDS011;56185;48.526;9.044;2023-02-13T09:12:43;15.07;;;9.52;;
69083;SDS011;56185;48.526;9.044;2023-02-13T09:15:08;15.30;;;9.45;;
69083;SDS011;56185;48.526;9.044;2023-02-13T09:17:34;17.70;;;9.80;;
69083;SDS011;56185;48.526;9.044;2023-02-13T09:19:59;18.27;;;10.85;;
69083;SDS011;56185;48.526;9.044;2023-02-13T09:22:25;18.37;;;10.50;;
69083;SDS011;56185;48.526;9.044;2023-02-13T09:24:50;17.27;;;10.45;;
69083;SDS011;56185;48.526;9.044;2023-02-13T09:27:15;18.00;;;10.68;;
69083;SDS011;56185;48.526;9.044;2023-02-13T09:29:40;17.27;;;10.27;;
69083;SDS011;56185;48.526;9.044;2023-02-13T09:32:06;18.80;;;10.65;;
69083;SDS011;56185;48.526;9.044;2023-02-13T09:34:31;17.88;;;10.27;;
69083;SDS011;56185;48.526;9.044;2023-02-13T09:36:56;18.98;;;10.90;;
69083;SDS011;56185;48.526;9.044;2023-02-13T09:39:21;18.80;;;10.57;;
69083;SDS011;56185;48.526;9.044;2023-02-13T09:41:47;19.83;;;10.70;;
69083;SDS011;56185;48.526;9.044;2023-02-13T09:44:18;17.45;;;10.18;;
69083;SDS011;56185;48.526;9.044;2023-02-13T09:49:52;20.70;;;10.90;;
69083;SDS011;56185;48.526;9.044;2023-02-13T09:52:20;18.77;;;10.35;;
69083;SDS011;56185;48.526;9.044;2023-02-13T09:54:46;20.38;;;10.73;;
69083;SDS011;56185;48.526;9.044;2023-02-13T09:57:16;18.08;;;10.32;;
69083;SDS011;56185;48.526;9.044;2023-02-13T10:00:02;19.92;;;11.05;;
69083;SDS011;56185;48.526;9.044;2023-02-13T10:05:18;20.23;;;11.05;;
69083;SDS011;56185;48.526;9.044;2023-02-13T10:16:44;18.88;;;10.43;;
69083;SDS011;56185;48.526;9.044;2023-02-13T10:21:58;19.35;;;10.88;;
69083;SDS011;56185;48.526;9.044;2023-02-13T10:24:30;31.60;;;12.40;;
69083;SDS011;56185;48.526;9.044;2023-02-13T10:27:01;17.60;;;10.32;;
69083;SDS011;56185;48.526;9.044;2023-02-13T10:29:42;18.17;;;10.70;;
69083;SDS011;56185;48.526;9.044;2023-02-13T10:32:13;19.38;;;11.15;;
69083;SDS011;56185;48.526;9.044;2023-02-13T10:34:43;19.10;;;10.82;;
69083;SDS011;56185;48.526;9.044;2023-02-13T10:37:17;19.85;;;11.15;;
69083;SDS011;56185;48.526;9.044;2023-02-13T10:39:47;19.05;;;10.82;;
69083;SDS011;56185;48.526;9.044;2023-02-13T10:44:59;18.25;;;10.48;;
69083;SDS011;56185;48.526;9.044;2023-02-13T10:47:38;17.77;;;10.93;;
69083;SDS011;56185;48.526;9.044;2023-02-13T10:50:18;19.10;;;10.77;;
69083;SDS011;56185;48.526;9.044;2023-02-13T10:52:56;17.95;;;10.57;;
69083;SDS011;56185;48.526;9.044;2023-02-13T10:58:17;28.38;;;11.30;;
69083;SDS011;56185;48.526;9.044;2023-02-13T11:00:47;17.98;;;11.07;;
69083;SDS011;56185;48.526;9.044;2023-02-13T11:03:59;19.35;;;11.35;;
69083;SDS011;56185;48.526;9.044;2023-02-13T11:06:29;19.65;;;10.57;;
69083;SDS011;56185;48.526;9.044;2023-02-13T11:08:54;18.27;;;10.30;;
69083;SDS011;56185;48.526;9.044;2023-02-13T11:22:02;17.40;;;10.48;;
69083;SDS011;56185;48.526;9.044;2023-02-13T11:24:30;19.30;;;11.15;;
69083;SDS011;56185;48.526;9.044;2023-02-13T11:27:02;16.98;;;10.63;;
69083;SDS011;56185;48.526;9.044;2023-02-13T11:29:31;20.30;;;11.43;;
69083;SDS011;56185;48.526;9.044;2023-02-13T11:32:16;17.70;;;10.43;;
69083;SDS011;56185;48.526;9.044;2023-02-13T11:34:44;16.88;;;10.35;;
69083;SDS011;56185;48.526;9.044;2023-02-13T11:39:44;18.07;;;10.63;;
69083;SDS011;56185;48.526;9.044;2023-02-13T11:44:39;18.73;;;11.32;;
69083;SDS011;56185;48.526;9.044;2023-02-13T11:47:06;18.80;;;11.05;;
69083;SDS011;56185;48.526;9.044;2023-02-13T11:49:35;17.30;;;10.55;;
69083;SDS011;56185;48.526;9.044;2023-02-13T11:52:03;18.80;;;10.75;;
69083;SDS011;56185;48.526;9.044;2023-02-13T11:54:42;18.15;;;11.00;;
69083;SDS011;56185;48.526;9.044;2023-02-13T11:59:47;16.35;;;10.52;;
69083;SDS011;56185;48.526;9.044;2023-02-13T12:02:16;17.92;;;10.55;;
69083;SDS011;56185;48.526;9.044;2023-02-13T12:04:54;19.92;;;11.75;;
69083;SDS011;56185;48.526;9.044;2023-02-13T12:07:40;17.85;;;10.85;;
69083;SDS011;56185;48.526;9.044;2023-02-13T12:12:45;16.02;;;10.55;;
69083;SDS011;56185;48.526;9.044;2023-02-13T12:15:19;18.60;;;10.27;;
69083;SDS011;56185;48.526;9.044;2023-02-13T12:20:25;18.08;;;10.68;;
69083;SDS011;56185;48.526;9.044;2023-02-13T12:25:39;17.20;;;10.45;;
69083;SDS011;56185;48.526;9.044;2023-02-13T12:28:15;18.75;;;10.95;;
69083;SDS011;56185;48.526;9.044;2023-02-13T12:33:40;17.63;;;10.38;;
69083;SDS011;56185;48.526;9.044;2023-02-13T12:39:24;18.30;;;11.38;;
69083;SDS011;56185;48.526;9.044;2023-02-13T12:42:03;17.73;;;10.40;;
69083;SDS011;56185;48.526;9.044;2023-02-13T12:44:44;17.63;;;11.02;;
69083;SDS011;56185;48.526;9.044;2023-02-13T12:47:50;17.50;;;10.90;;
69083;SDS011;56185;48.526;9.044;2023-02-13T12:50:42;18.20;;;10.25;;
69083;SDS011;56185;48.526;9.044;2023-02-13T12:53:56;15.90;;;10.55;;
69083;SDS011;56185;48.526;9.044;2023-02-13T13:04:36;17.13;;;10.35;;
69083;SDS011;56185;48.526;9.044;2023-02-13T13:12:49;16.13;;;9.88;;
69083;SDS011;56185;48.526;9.044;2023-02-13T13:15:32;20.27;;;10.88;;
69083;SDS011;56185;48.526;9.044;2023-02-13T13:18:10;17.35;;;10.63;;
69083;SDS011;56185;48.526;9.044;2023-02-13T13:23:32;16.45;;;10.15;;
69083;SDS011;56185;48.526;9.044;2023-02-13T13:28:53;17.30;;;9.95;;
69083;SDS011;56185;48.526;9.044;2023-02-13T13:31:21;15.70;;;10.35;;
69083;SDS011;56185;48.526;9.044;2023-02-13T13:33:47;15.80;;;9.80;;
69083;SDS011;56185;48.526;9.044;2023-02-13T13:39:18;14.27;;;9.02;;
69083;SDS011;56185;48.526;9.044;2023-02-13T13:52:23;13.95;;;8.85;;
69083;SDS011;56185;48.526;9.044;2023-02-13T13:54:59;12.93;;;9.25;;
69083;SDS011;56185;48.526;9.044;2023-02-13T13:58:17;16.80;;;10.30;;
69083;SDS011;56185;48.526;9.044;2023-02-13T14:00:24;14.85;;;10.23;;
69083;SDS011;56185;48.526;9.044;2023-02-13T14:05:30;20.27;;;10.20;;
69083;SDS011;56185;48.526;9.044;2023-02-13T14:08:07;20.50;;;10.05;;
69083;SDS011;56185;48.526;9.044;2023-02-13T14:14:42;15.70;;;10.38;;
69083;SDS011;56185;48.526;9.044;2023-02-13T14:17:00;16.95;;;9.93;;
69083;SDS011;56185;48.526;9.044;2023-02-13T14:22:38;16.77;;;9.35;;
69083;SDS011;56185;48.526;9.044;2023-02-13T14:24:54;15.60;;;8.45;;
69083;SDS011;56185;48.526;9.044;2023-02-13T14:27:22;13.70;;;8.98;;
69083;SDS011;56185;48.526;9.044;2023-02-13T14:29:53;13.00;;;8.95;;
69083;SDS011;56185;48.526;9.044;2023-02-13T14:34:58;18.45;;;9.38;;
69083;SDS011;56185;48.526;9.044;2023-02-13T14:37:36;14.23;;;8.80;;
69083;SDS011;56185;48.526;9.044;2023-02-13T14:40:56;10.75;;;7.95;;
69083;SDS011;56185;48.526;9.044;2023-02-13T14:45:52;20.77;;;8.63;;
69083;SDS011;56185;48.526;9.044;2023-02-13T14:48:21;12.48;;;7.88;;
69083;SDS011;56185;48.526;9.044;2023-02-13T14:50:55;13.82;;;8.43;;
69083;SDS011;56185;48.526;9.044;2023-02-13T14:53:29;10.70;;;8.00;;
69083;SDS011;56185;48.526;9.044;2023-02-13T14:55:58;9.68;;;7.78;;
69083;SDS011;56185;48.526;9.044;2023-02-13T14:58:31;12.00;;;7.45;;
69083;SDS011;56185;48.526;9.044;2023-02-13T15:01:03;11.00;;;7.00;;
69083;SDS011;56185;48.526;9.044;2023-02-13T15:06:06;12.15;;;8.10;;
69083;SDS011;56185;48.526;9.044;2023-02-13T15:08:47;10.45;;;7.32;;
69083;SDS011;56185;48.526;9.044;2023-02-13T15:11:30;11.30;;;7.43;;
69083;SDS011;56185;48.526;9.044;2023-02-13T15:14:19;11.48;;;6.88;;
69083;SDS011;56185;48.526;9.044;2023-02-13T15:16:46;9.82;;;6.80;;
69083;SDS011;56185;48.526;9.044;2023-02-13T15:19:15;9.98;;;6.65;;
69083;SDS011;56185;48.526;9.044;2023-02-13T15:21:46;9.90;;;7.40;;
69083;SDS011;56185;48.526;9.044;2023-02-13T15:24:17;11.15;;;6.47;;
69083;SDS011;56185;48.526;9.044;2023-02-13T15:26:48;10.43;;;6.90;;
69083;SDS011;56185;48.526;9.044;2023-02-13T15:29:16;13.80;;;6.65;;
69083;SDS011;56185;48.526;9.044;2023-02-13T15:31:43;9.80;;;6.78;;
69083;SDS011;56185;48.526;9.044;2023-02-13T15:37:18;11.93;;;7.20;;
69083;SDS011;56185;48.526;9.044;2023-02-13T15:39:44;11.23;;;7.30;;
69083;SDS011;56185;48.526;9.044;2023-02-13T15:42:10;9.27;;;6.38;;
69083;SDS011;56185;48.526;9.044;2023-02-13T15:44:36;10.20;;;6.82;;
69083;SDS011;56185;48.526;9.044;2023-02-13T15:47:07;12.23;;;7.15;;
69083;SDS011;56185;48.526;9.044;2023-02-13T15:49:44;10.75;;;7.32;;
69083;SDS011;56185;48.526;9.044;2023-02-13T15:52:22;11.45;;;7.13;;
69083;SDS011;56185;48.526;9.044;2023-02-13T15:54:57;12.27;;;7.25;;
69083;SDS011;56185;48.526;9.044;2023-02-13T15:57:22;12.15;;;7.25;;
69083;SDS011;56185;48.526;9.044;2023-02-13T15:59:49;11.63;;;6.75;;
69083;SDS011;56185;48.526;9.044;2023-02-13T16:02:37;10.45;;;7.18;;
69083;SDS011;56185;48.526;9.044;2023-02-13T16:05:05;9.10;;;6.75;;
69083;SDS011;56185;48.526;9.044;2023-02-13T16:12:53;10.65;;;7.40;;
69083;SDS011;56185;48.526;9.044;2023-02-13T16:15:21;10.95;;;7.18;;
69083;SDS011;56185;48.526;9.044;2023-02-13T16:17:50;11.85;;;7.40;;
69083;SDS011;56185;48.526;9.044;2023-02-13T16:20:16;12.40;;;7.95;;
69083;SDS011;56185;48.526;9.044;2023-02-13T16:22:49;11.75;;;7.53;;
69083;SDS011;56185;48.526;9.044;2023-02-13T16:27:57;11.48;;;7.68;;
69083;SDS011;56185;48.526;9.044;2023-02-13T16:35:42;12.50;;;8.05;;
69083;SDS011;56185;48.526;9.044;2023-02-13T16:40:53;12.40;;;8.18;;
69083;SDS011;56185;48.526;9.044;2023-02-13T16:46:10;11.23;;;7.47;;
69083;SDS011;56185;48.526;9.044;2023-02-13T16:48:39;13.73;;;8.82;;
69083;SDS011;56185;48.526;9.044;2023-02-13T16:51:06;13.35;;;8.77;;
69083;SDS011;56185;48.526;9.044;2023-02-13T16:53:31;11.23;;;7.85;;
69083;SDS011;56185;48.526;9.044;2023-02-13T16:55:58;12.70;;;8.85;;
69083;SDS011;56185;48.526;9.044;2023-02-13T16:58:26;14.40;;;8.23;;
69083;SDS011;56185;48.526;9.044;2023-02-13T17:00:51;14.77;;;9.55;;
69083;SDS011;56185;48.526;9.044;2023-02-13T17:03:17;14.10;;;8.57;;
69083;SDS011;56185;48.526;9.044;2023-02-13T17:05:42;13.83;;;8.77;;
69083;SDS011;56185;48.526;9.044;2023-02-13T17:08:07;13.60;;;9.02;;
69083;SDS011;56185;48.526;9.044;2023-02-13T17:10:33;15.48;;;8.82;;
69083;SDS011;56185;48.526;9.044;2023-02-13T17:13:01;15.27;;;8.88;;
69083;SDS011;56185;48.526;9.044;2023-02-13T17:15:33;14.27;;;9.20;;
69083;SDS011;56185;48.526;9.044;2023-02-13T17:17:58;14.93;;;8.65;;
69083;SDS011;56185;48.526;9.044;2023-02-13T17:20:24;15.32;;;10.13;;
69083;SDS011;56185;48.526;9.044;2023-02-13T17:22:56;18.20;;;9.73;;
69083;SDS011;56185;48.526;9.044;2023-02-13T17:25:27;16.52;;;9.38;;